This is the latest recevied weather packets stored in our database for station/object KY4EF. If no packets are shown the sender has not sent any weather packets the latest 1 day(s).
| Time | Temp. | Humidity | Pressure | Rain* | Wind** | Luminosity | Snow |
|---|---|---|---|---|---|---|---|
| 1778114982 | 16.11° C | 99% | 1013.5 hPa | 0 mm | - | 0 W/m² | - |
| 1778114071 | 16.11° C | 99% | 1013 hPa | 1.27 mm | - | 0 W/m² | - |
| 1778113463 | 16.67° C | 99% | 1012.9 hPa | 3.05 mm | - | 0 W/m² | - |
| 1778110429 | 17.22° C | 99% | 1011.6 hPa | 3.05 mm | - | 6 W/m² | - |
| 1778109823 | 17.22° C | 99% | 1011.7 hPa | 6.1 mm | - | 8 W/m² | - |
| 1778109217 | 17.78° C | 99% | 1012.3 hPa | 7.87 mm | - | 7 W/m² | - |
| 1778108306 | 17.78° C | 99% | 1011.5 hPa | 0 mm | - | 6 W/m² | - |
| 1778107094 | 17.78° C | 99% | 1012.3 hPa | 0 mm | - | 34 W/m² | - |
| 1778106182 | 17.78° C | 99% | 1012.5 hPa | 0 mm | - | 24 W/m² | - |
| 1778105578 | 17.78° C | 99% | 1011.7 hPa | 1.78 mm | - | 19 W/m² | - |
| 1778104667 | 17.78° C | 99% | 1012.2 hPa | 0 mm | - | 35 W/m² | - |
| 1778104053 | 17.78° C | 99% | 1012.2 hPa | 1.27 mm | - | 40 W/m² | - |
| 1778103145 | 18.33° C | 99% | 1011.9 hPa | 0 mm | - | 24 W/m² | - |
| 1778101621 | 18.33° C | 99% | 1012.2 hPa | 0 mm | - | 58 W/m² | - |
| 1778101318 | 18.33° C | 99% | 1011.9 hPa | 0 mm | - | 142 W/m² | - |
| 1778099803 | 17.78° C | 99% | 1013 hPa | 4.83 mm | - | 22 W/m² | - |
| 1778098287 | 17.22° C | 99% | 1013 hPa | 4.83 mm | - | 23 W/m² | - |
| 1778095863 | 18.33° C | 98% | 1013.3 hPa | 1.27 mm | - | 79 W/m² | - |
| 1778094345 | 19.44° C | 91% | 1013.5 hPa | 0 mm | - | 141 W/m² | - |
| 1778088890 | 19.44° C | 90% | 1013.4 hPa | 0 mm | - | 612 W/m² | - |
| 1778088587 | 18.33° C | 96% | 1013.3 hPa | 0 mm | - | 610 W/m² | - |
| 1778088285 | 18.33° C | 97% | 1013.1 hPa | 0 mm | - | 260 W/m² | - |
| 1778085242 | 17.78° C | 99% | 1012.9 hPa | 0 mm | - | 233 W/m² | - |
| 1778084937 | 16.67° C | 99% | 1013.1 hPa | 0 mm | - | 428 W/m² | - |
| 1778084635 | 16.67° C | 99% | 1013.4 hPa | 0 mm | - | 247 W/m² | - |
* Rain latest hour (hover to see other rain measurements)
** Current wind speed in m/s (hover to see current wind gust speed)